Time,TemperatureF,DewpointF,PressureIn,WindDirection,WindDirectionDegrees,WindSpeedMPH,WindSpeedGustMPH,Humidity,HourlyPrecipIn,Conditions,Clouds,dailyrainin,SoftwareType,DateUTC
2014-01-11 00:01:00,42.5,41.2,30.10,NE,40,0.0,0.0,95,0.07,RA,,0.00,WeatherDisplay:10.37,2014-01-11 05:01:00,
2014-01-11 00:02:00,42.5,41.2,30.10,NE,40,0.0,0.0,95,0.08,RA,,0.01,WeatherDisplay:10.37,2014-01-11 05:02:00,
2014-01-11 00:07:00,42.5,41.2,30.10,NE,40,0.0,0.0,95,0.08,RA,,0.01,WeatherDisplay:10.37,2014-01-11 05:07:00,
2014-01-11 00:12:00,42.6,41.3,30.09,ENE,73,0.0,0.0,95,0.09,RA,,0.02,WeatherDisplay:10.37,2014-01-11 05:12:00,
2014-01-11 00:17:00,42.6,41.3,30.09,ENE,68,0.0,0.0,95,0.09,RA,,0.02,WeatherDisplay:10.37,2014-01-11 05:17:00,
2014-01-11 00:22:00,42.7,41.4,30.08,ENE,68,0.0,0.0,95,0.09,,,0.02,WeatherDisplay:10.37,2014-01-11 05:22:00,
2014-01-11 00:27:00,42.7,41.4,30.08,ENE,61,3.5,3.5,95,0.08,CLR,,0.02,WeatherDisplay:10.37,2014-01-11 05:27:00,
2014-01-11 00:32:00,42.7,41.4,30.08,ENE,62,0.0,0.0,95,0.07,CLR,,0.02,WeatherDisplay:10.37,2014-01-11 05:32:00,
2014-01-11 00:37:00,42.7,41.4,30.08,ENE,61,0.0,0.0,95,0.06,CLR,,0.02,WeatherDisplay:10.37,2014-01-11 05:37:00,
2014-01-11 00:42:00,42.7,41.4,30.08,ENE,61,0.0,0.0,95,0.08,RA,,0.04,WeatherDisplay:10.37,2014-01-11 05:42:00,
2014-01-11 00:47:00,42.6,41.3,30.07,ENE,62,2.3,2.3,95,0.10,RA,,0.06,WeatherDisplay:10.37,2014-01-11 05:47:00,
2014-01-11 00:52:00,42.6,41.3,30.07,ENE,61,0.0,0.0,95,0.08,RA,,0.06,WeatherDisplay:10.37,2014-01-11 05:52:00,
2014-01-11 00:57:00,42.6,41.3,30.07,ENE,62,0.0,0.0,95,0.07,CLR,,0.06,WeatherDisplay:10.37,2014-01-11 05:57:00,
2014-01-11 01:02:00,42.6,41.3,30.06,ENE,62,0.0,0.0,95,0.05,CLR,,0.06,WeatherDisplay:10.37,2014-01-11 06:02:00,
2014-01-11 01:07:00,42.6,41.3,30.07,ENE,61,0.0,0.0,95,0.05,CLR,,0.06,WeatherDisplay:10.37,2014-01-11 06:07:00,
2014-01-11 01:12:00,42.6,41.3,30.06,ENE,61,0.0,0.0,95,0.04,CLR,,0.06,WeatherDisplay:10.37,2014-01-11 06:12:00,
2014-01-11 01:17:00,42.6,41.3,30.06,ENE,62,0.0,0.0,95,0.04,CLR,,0.06,WeatherDisplay:10.37,2014-01-11 06:17:00,
2014-01-11 01:22:00,42.6,41.3,30.06,ENE,62,0.0,0.0,95,0.04,CLR,,0.06,WeatherDisplay:10.37,2014-01-11 06:22:00,
2014-01-11 01:27:00,42.6,41.3,30.06,ENE,61,0.0,0.0,95,0.05,RA,,0.07,WeatherDisplay:10.37,2014-01-11 06:27:00,
2014-01-11 01:32:00,42.5,41.2,30.05,ENE,62,0.0,0.0,95,0.05,RA,,0.07,WeatherDisplay:10.37,2014-01-11 06:32:00,
2014-01-11 01:37:00,42.6,41.3,30.05,ENE,62,0.0,0.0,95,0.05,CLR,,0.07,WeatherDisplay:10.37,2014-01-11 06:37:00,
2014-01-11 01:42:00,42.5,41.2,30.05,ENE,62,0.0,0.0,95,0.03,CLR,,0.07,WeatherDisplay:10.37,2014-01-11 06:42:00,
2014-01-11 01:47:00,42.5,41.2,30.05,ENE,62,0.0,0.0,95,0.01,CLR,,0.07,WeatherDisplay:10.37,2014-01-11 06:47:00,
2014-01-11 01:52:00,42.5,41.2,30.05,ENE,61,0.0,0.0,95,0.01,CLR,,0.07,WeatherDisplay:10.37,2014-01-11 06:52:00,
2014-01-11 01:57:00,42.5,41.2,30.04,ENE,62,1.2,1.2,95,0.02,RA,,0.08,WeatherDisplay:10.37,2014-01-11 06:57:00,
2014-01-11 02:02:00,42.5,41.2,30.03,ENE,61,3.5,3.5,95,0.02,RA,,0.08,WeatherDisplay:10.37,2014-01-11 07:02:00,
2014-01-11 02:07:00,42.4,41.1,30.03,ENE,61,2.3,2.3,95,0.02,CLR,,0.08,WeatherDisplay:10.37,2014-01-11 07:07:00,
2014-01-11 02:12:00,42.5,41.2,30.03,ENE,62,0.0,0.0,95,0.02,CLR,,0.08,WeatherDisplay:10.37,2014-01-11 07:12:00,
2014-01-11 02:17:00,42.5,41.2,30.03,ENE,61,0.0,0.0,95,0.02,CLR,,0.08,WeatherDisplay:10.37,2014-01-11 07:17:00,
2014-01-11 02:22:00,42.5,41.2,30.02,ENE,61,0.0,0.0,95,0.02,CLR,,0.08,WeatherDisplay:10.37,2014-01-11 07:22:00,
2014-01-11 02:27:00,42.5,41.2,30.02,ENE,62,0.0,0.0,95,0.01,CLR,,0.08,WeatherDisplay:10.37,2014-01-11 07:27:00,
2014-01-11 02:32:00,42.5,41.2,30.02,ENE,62,0.0,0.0,95,0.01,CLR,,0.08,WeatherDisplay:10.37,2014-01-11 07:32:00,
2014-01-11 02:37:00,42.5,41.2,30.01,ENE,62,0.0,0.0,95,0.01,CLR,,0.08,WeatherDisplay:10.37,2014-01-11 07:37:00,
2014-01-11 02:42:00,42.5,41.2,30.01,ENE,62,0.0,0.0,95,0.01,CLR,,0.08,WeatherDisplay:10.37,2014-01-11 07:42:00,
2014-01-11 02:47:00,42.5,41.2,30.01,ENE,62,0.0,0.0,95,0.01,CLR,,0.08,WeatherDisplay:10.37,2014-01-11 07:47:00,
2014-01-11 02:52:00,42.4,41.1,30.01,ENE,61,0.0,0.0,95,0.01,CLR,,0.08,WeatherDisplay:10.37,2014-01-11 07:52:00,
2014-01-11 02:57:00,42.5,41.2,30.02,ENE,61,0.0,0.0,95,0.00,CLR,,0.08,WeatherDisplay:10.37,2014-01-11 07:57:00,
2014-01-11 03:02:00,42.4,41.1,30.02,WNW,292,2.3,2.3,95,0.01,RA,,0.09,WeatherDisplay:10.37,2014-01-11 08:02:00,
2014-01-11 03:07:00,42.4,41.1,30.01,WNW,292,0.0,0.0,95,0.05,RA,,0.14,WeatherDisplay:10.37,2014-01-11 08:07:00,
2014-01-11 03:12:00,42.4,41.1,30.00,NE,40,3.5,3.5,95,0.09,RA,,0.17,WeatherDisplay:10.37,2014-01-11 08:12:00,
2014-01-11 03:17:00,42.4,41.1,30.00,NE,40,0.0,0.0,95,0.10,RA,,0.18,WeatherDisplay:10.37,2014-01-11 08:17:00,
2014-01-11 03:22:00,42.4,41.1,30.00,NE,40,0.0,0.0,95,0.11,RA,,0.20,WeatherDisplay:10.37,2014-01-11 08:22:00,
2014-01-11 03:27:00,42.5,41.2,29.99,NE,40,0.0,0.0,95,0.15,RA,,0.23,WeatherDisplay:10.37,2014-01-11 08:27:00,
2014-01-11 03:32:00,42.5,41.2,29.99,NE,40,0.0,0.0,95,0.16,RA,,0.24,WeatherDisplay:10.37,2014-01-11 08:32:00,
2014-01-11 03:37:00,42.5,41.2,30.00,WNW,288,4.6,4.6,95,0.21,RA,,0.29,WeatherDisplay:10.37,2014-01-11 08:37:00,
2014-01-11 03:42:00,42.5,41.2,29.99,WNW,292,0.0,0.0,95,0.21,RA,,0.29,WeatherDisplay:10.37,2014-01-11 08:42:00,
2014-01-11 03:47:00,42.5,41.2,29.99,WNW,302,0.0,0.0,95,0.21,,,0.29,WeatherDisplay:10.37,2014-01-11 08:47:00,
2014-01-11 03:52:00,42.6,41.3,29.98,WNW,302,0.0,0.0,95,0.21,CLR,,0.29,WeatherDisplay:10.37,2014-01-11 08:52:00,
2014-01-11 03:57:00,42.6,41.5,29.98,WNW,302,0.0,0.0,96,0.21,CLR,,0.29,WeatherDisplay:10.37,2014-01-11 08:57:00,
2014-01-11 04:02:00,42.6,41.5,29.97,WNW,302,0.0,0.0,96,0.21,RA,,0.30,WeatherDisplay:10.37,2014-01-11 09:02:00,
2014-01-11 04:07:00,42.6,41.5,29.97,WNW,302,0.0,0.0,96,0.17,RA,,0.30,WeatherDisplay:10.37,2014-01-11 09:07:00,
2014-01-11 04:12:00,42.6,41.5,29.96,WNW,302,0.0,0.0,96,0.13,CLR,,0.30,WeatherDisplay:10.37,2014-01-11 09:12:00,
2014-01-11 04:17:00,42.6,41.5,29.96,NE,37,0.0,0.0,96,0.12,CLR,,0.30,WeatherDisplay:10.37,2014-01-11 09:17:00,
2014-01-11 04:22:00,42.6,41.5,29.96,NE,37,0.0,0.0,96,0.11,CLR,,0.30,WeatherDisplay:10.37,2014-01-11 09:22:00,
2014-01-11 04:27:00,42.6,41.3,29.96,NE,37,0.0,0.0,95,0.07,CLR,,0.30,WeatherDisplay:10.37,2014-01-11 09:27:00,
2014-01-11 04:32:00,42.7,41.4,29.96,NE,37,0.0,0.0,95,0.06,CLR,,0.30,WeatherDisplay:10.37,2014-01-11 09:32:00,
2014-01-11 04:37:00,42.7,41.4,29.96,NE,37,0.0,0.0,95,0.01,CLR,,0.30,WeatherDisplay:10.37,2014-01-11 09:37:00,
2014-01-11 04:42:00,42.7,41.4,29.95,NE,37,0.0,0.0,95,0.01,CLR,,0.30,WeatherDisplay:10.37,2014-01-11 09:42:00,
2014-01-11 04:47:00,42.7,41.4,29.95,NE,37,0.0,0.0,95,0.01,CLR,,0.30,WeatherDisplay:10.37,2014-01-11 09:47:00,
2014-01-11 04:52:00,42.7,41.4,29.95,NE,37,0.0,0.0,95,0.01,CLR,,0.30,WeatherDisplay:10.37,2014-01-11 09:52:00,
2014-01-11 04:57:00,42.7,41.4,29.95,NE,37,0.0,0.0,95,0.01,CLR,,0.30,WeatherDisplay:10.37,2014-01-11 09:57:00,
2014-01-11 05:02:00,42.7,41.4,29.95,NE,37,0.0,0.0,95,0.00,CLR,,0.30,WeatherDisplay:10.37,2014-01-11 10:02:00,
2014-01-11 05:07:00,42.7,41.4,29.95,NE,37,0.0,0.0,95,0.00,CLR,,0.30,WeatherDisplay:10.37,2014-01-11 10:07:00,
2014-01-11 05:12:00,42.7,41.4,29.95,NE,37,0.0,0.0,95,0.00,CLR,,0.30,WeatherDisplay:10.37,2014-01-11 10:12:00,
2014-01-11 05:17:00,42.7,41.4,29.94,NE,37,0.0,0.0,95,0.01,RA,,0.31,WeatherDisplay:10.37,2014-01-11 10:17:00,
2014-01-11 05:22:00,42.7,41.4,29.94,NE,37,0.0,0.0,95,0.01,RA,,0.31,WeatherDisplay:10.37,2014-01-11 10:22:00,
2014-01-11 05:27:00,42.7,41.4,29.93,NE,37,0.0,0.0,95,0.01,CLR,,0.31,WeatherDisplay:10.37,2014-01-11 10:27:00,
2014-01-11 05:32:00,42.7,41.4,29.93,NE,37,0.0,0.0,95,0.01,CLR,,0.31,WeatherDisplay:10.37,2014-01-11 10:32:00,
2014-01-11 05:37:00,42.7,41.4,29.93,NE,37,0.0,0.0,95,0.01,CLR,,0.31,WeatherDisplay:10.37,2014-01-11 10:37:00,
2014-01-11 05:42:00,42.7,41.4,29.94,NE,37,0.0,0.0,95,0.02,RA,,0.32,WeatherDisplay:10.37,2014-01-11 10:42:00,
2014-01-11 05:47:00,42.7,41.4,29.93,NE,37,0.0,0.0,95,0.03,RA,,0.33,WeatherDisplay:10.37,2014-01-11 10:47:00,
2014-01-11 05:52:00,42.7,41.4,29.93,NE,37,0.0,0.0,95,0.04,RA,,0.34,WeatherDisplay:10.37,2014-01-11 10:52:00,
2014-01-11 05:57:00,42.7,41.4,29.94,NE,37,0.0,0.0,95,0.06,RA,,0.36,WeatherDisplay:10.37,2014-01-11 10:57:00,
2014-01-11 06:02:00,42.7,41.4,29.97,West,259,7.0,7.0,95,0.07,RA,,0.38,WeatherDisplay:10.37,2014-01-11 11:02:00,
2014-01-11 06:07:00,42.7,41.4,29.93,East,88,2.3,2.3,95,0.17,RA,,0.47,WeatherDisplay:10.37,2014-01-11 11:07:00,
2014-01-11 06:12:00,42.7,41.4,29.93,East,87,0.0,0.0,95,0.20,RA,,0.50,WeatherDisplay:10.37,2014-01-11 11:12:00,
2014-01-11 06:17:00,42.7,41.4,29.92,East,88,0.0,0.0,95,0.20,RA,,0.51,WeatherDisplay:10.37,2014-01-11 11:17:00,
2014-01-11 06:22:00,42.8,41.7,29.92,East,88,0.0,0.0,96,0.21,RA,,0.52,WeatherDisplay:10.37,2014-01-11 11:22:00,
2014-01-11 06:27:00,42.8,41.5,29.92,East,87,0.0,0.0,95,0.22,RA,,0.54,WeatherDisplay:10.37,2014-01-11 11:27:00,
2014-01-11 06:32:00,42.8,41.7,29.91,East,88,0.0,0.0,96,0.24,RA,,0.55,WeatherDisplay:10.37,2014-01-11 11:32:00,
2014-01-11 06:37:00,42.9,41.8,29.92,East,88,0.0,0.0,96,0.26,RA,,0.57,WeatherDisplay:10.37,2014-01-11 11:37:00,
2014-01-11 06:42:00,42.9,41.8,29.91,East,88,0.0,0.0,96,0.26,RA,,0.58,WeatherDisplay:10.37,2014-01-11 11:42:00,
2014-01-11 06:47:00,43.0,41.9,29.91,East,88,0.0,0.0,96,0.27,RA,,0.60,WeatherDisplay:10.37,2014-01-11 11:47:00,
2014-01-11 06:52:00,43.0,41.9,29.90,East,88,0.0,0.0,96,0.27,RA,,0.62,WeatherDisplay:10.37,2014-01-11 11:52:00,
2014-01-11 06:57:00,43.1,42.0,29.89,East,88,0.0,0.0,96,0.28,RA,,0.65,WeatherDisplay:10.37,2014-01-11 11:57:00,
2014-01-11 07:02:00,43.1,42.0,29.89,East,88,0.0,0.0,96,0.28,RA,,0.67,WeatherDisplay:10.37,2014-01-11 12:02:00,
2014-01-11 07:07:00,43.1,42.0,29.89,East,88,0.0,0.0,96,0.22,RA,,0.69,WeatherDisplay:10.37,2014-01-11 12:07:00,
2014-01-11 07:12:00,43.2,42.1,29.89,East,88,0.0,0.0,96,0.21,RA,,0.71,WeatherDisplay:10.37,2014-01-11 12:12:00,
2014-01-11 07:17:00,43.2,42.1,29.88,East,88,0.0,0.0,96,0.22,RA,,0.73,WeatherDisplay:10.37,2014-01-11 12:17:00,
2014-01-11 07:22:00,43.3,42.2,29.87,East,87,0.0,0.0,96,0.22,RA,,0.75,WeatherDisplay:10.37,2014-01-11 12:22:00,
2014-01-11 07:27:00,43.3,42.2,29.85,East,88,0.0,0.0,96,0.23,RA,,0.76,WeatherDisplay:10.37,2014-01-11 12:27:00,
2014-01-11 07:32:00,43.3,42.2,29.86,East,88,0.0,0.0,96,0.22,RA,,0.77,WeatherDisplay:10.37,2014-01-11 12:32:00,
2014-01-11 07:37:00,43.3,42.2,29.86,East,88,2.3,0.0,96,0.21,RA,,0.78,WeatherDisplay:10.37,2014-01-11 12:37:00,
2014-01-11 07:42:00,43.3,42.2,29.86,East,88,1.2,1.2,96,0.21,RA,,0.80,WeatherDisplay:10.37,2014-01-11 12:42:00,
2014-01-11 07:47:00,43.4,42.3,29.85,East,88,0.0,0.0,96,0.21,RA,,0.81,WeatherDisplay:10.37,2014-01-11 12:47:00,
2014-01-11 07:52:00,43.4,42.3,29.84,ENE,71,3.5,3.5,96,0.20,RA,,0.81,WeatherDisplay:10.37,2014-01-11 12:52:00,
2014-01-11 07:57:00,43.6,42.5,29.84,East,101,2.3,0.0,96,0.17,CLR,,0.81,WeatherDisplay:10.37,2014-01-11 12:57:00,
2014-01-11 08:02:00,43.8,42.7,29.83,East,101,0.0,0.0,96,0.15,CLR,,0.81,WeatherDisplay:10.37,2014-01-11 13:02:00,
2014-01-11 08:07:00,44.0,42.9,29.83,East,101,0.0,0.0,96,0.13,RA,,0.82,WeatherDisplay:10.37,2014-01-11 13:07:00,
2014-01-11 08:12:00,44.3,43.2,29.83,ESE,112,0.0,0.0,96,0.11,RA,,0.82,WeatherDisplay:10.37,2014-01-11 13:12:00,
2014-01-11 08:17:00,44.8,43.7,29.83,ESE,112,0.0,0.0,96,0.09,,,0.82,WeatherDisplay:10.37,2014-01-11 13:17:00,
2014-01-11 08:22:00,45.0,43.9,29.84,ESE,112,0.0,0.0,96,0.08,CLR,,0.82,WeatherDisplay:10.37,2014-01-11 13:22:00,
2014-01-11 08:27:00,45.3,44.2,29.83,ESE,111,0.0,0.0,96,0.06,CLR,,0.82,WeatherDisplay:10.37,2014-01-11 13:27:00,
2014-01-11 08:32:00,45.7,44.6,29.84,ESE,111,0.0,0.0,96,0.06,RA,,0.83,WeatherDisplay:10.37,2014-01-11 13:32:00,
2014-01-11 08:37:00,45.7,44.6,29.83,ESE,111,0.0,0.0,96,0.05,RA,,0.83,WeatherDisplay:10.37,2014-01-11 13:37:00,
2014-01-11 08:42:00,45.6,44.5,29.83,ESE,111,0.0,0.0,96,0.04,,,0.83,WeatherDisplay:10.37,2014-01-11 13:42:00,
2014-01-11 08:47:00,45.6,44.5,29.83,ESE,111,0.0,0.0,96,0.02,CLR,,0.83,WeatherDisplay:10.37,2014-01-11 13:47:00,
2014-01-11 08:52:00,45.6,44.5,29.83,ESE,111,0.0,0.0,96,0.02,CLR,,0.83,WeatherDisplay:10.37,2014-01-11 13:52:00,
2014-01-11 08:57:00,45.6,44.5,29.83,ESE,111,0.0,0.0,96,0.02,CLR,,0.83,WeatherDisplay:10.37,2014-01-11 13:57:00,
2014-01-11 09:02:00,45.6,44.5,29.83,ESE,117,0.0,0.0,96,0.02,CLR,,0.83,WeatherDisplay:10.37,2014-01-11 14:02:00,
2014-01-11 09:07:00,46.0,44.9,29.82,SW,219,3.5,3.5,96,0.01,CLR,,0.83,WeatherDisplay:10.37,2014-01-11 14:07:00,
2014-01-11 09:12:00,46.1,45.0,29.82,WNW,299,0.0,0.0,96,0.01,CLR,,0.83,WeatherDisplay:10.37,2014-01-11 14:12:00,
2014-01-11 09:17:00,45.9,44.8,29.82,WNW,299,0.0,0.0,96,0.01,CLR,,0.84,WeatherDisplay:10.37,2014-01-11 14:17:00,
2014-01-11 09:22:00,45.7,44.6,29.82,WNW,299,0.0,0.0,96,0.02,RA,,0.84,WeatherDisplay:10.37,2014-01-11 14:22:00,
2014-01-11 09:27:00,45.7,44.6,29.81,WNW,299,0.0,0.0,96,0.02,RA,,0.84,WeatherDisplay:10.37,2014-01-11 14:27:00,
2014-01-11 09:32:00,45.8,44.7,29.81,WNW,298,0.0,0.0,96,0.01,CLR,,0.84,WeatherDisplay:10.37,2014-01-11 14:32:00,
2014-01-11 09:37:00,46.1,45.0,29.81,WNW,298,0.0,0.0,96,0.01,CLR,,0.84,WeatherDisplay:10.37,2014-01-11 14:37:00,
2014-01-11 09:42:00,46.6,45.5,29.81,WNW,292,0.0,0.0,96,0.01,CLR,,0.84,WeatherDisplay:10.37,2014-01-11 14:42:00,
2014-01-11 09:47:00,47.2,46.1,29.80,WNW,291,0.0,0.0,96,0.01,CLR,,0.84,WeatherDisplay:10.37,2014-01-11 14:47:00,
2014-01-11 09:52:00,47.7,46.6,29.80,WNW,291,0.0,0.0,96,0.01,CLR,,0.84,WeatherDisplay:10.37,2014-01-11 14:52:00,
2014-01-11 09:57:00,48.3,47.2,29.80,WNW,291,0.0,0.0,96,0.01,CLR,,0.84,WeatherDisplay:10.37,2014-01-11 14:57:00,
2014-01-11 10:02:00,48.8,47.7,29.79,WNW,292,0.0,0.0,96,0.01,CLR,,0.84,WeatherDisplay:10.37,2014-01-11 15:02:00,
2014-01-11 10:07:00,48.6,47.5,29.79,WNW,292,0.0,0.0,96,0.01,CLR,,0.84,WeatherDisplay:10.37,2014-01-11 15:07:00,
2014-01-11 10:12:00,48.1,47.0,29.79,WNW,292,3.5,3.5,96,0.01,CLR,,0.84,WeatherDisplay:10.37,2014-01-11 15:12:00,
2014-01-11 10:17:00,47.5,46.4,29.79,WNW,292,2.0,2.0,96,0.01,CLR,,0.84,WeatherDisplay:10.37,2014-01-11 15:17:00,
2014-01-11 10:22:00,47.0,45.9,29.78,WNW,291,0.0,0.0,96,0.00,CLR,,0.84,WeatherDisplay:10.37,2014-01-11 15:22:00,
2014-01-11 10:27:00,46.8,45.7,29.78,WNW,303,4.0,4.0,96,0.00,CLR,,0.84,WeatherDisplay:10.37,2014-01-11 15:27:00,
2014-01-11 10:32:00,46.5,45.4,29.77,North,360,4.6,4.6,96,0.00,CLR,,0.84,WeatherDisplay:10.37,2014-01-11 15:32:00,
2014-01-11 10:37:00,46.2,45.1,29.77,NNE,13,3.5,3.5,96,0.00,CLR,,0.84,WeatherDisplay:10.37,2014-01-11 15:37:00,
2014-01-11 10:42:00,46.2,45.1,29.76,NNE,18,5.8,5.8,96,0.00,CLR,,0.84,WeatherDisplay:10.37,2014-01-11 15:42:00,
2014-01-11 10:47:00,46.1,45.0,29.76,NNE,25,5.0,5.0,96,0.00,CLR,,0.84,WeatherDisplay:10.37,2014-01-11 15:47:00,
2014-01-11 10:52:00,45.9,44.8,29.75,NE,39,5.8,5.8,96,0.00,CLR,,0.84,WeatherDisplay:10.37,2014-01-11 15:52:00,
2014-01-11 10:57:00,45.7,44.6,29.76,North,349,3.5,3.5,96,0.00,CLR,,0.84,WeatherDisplay:10.37,2014-01-11 15:57:00,
2014-01-11 11:02:00,45.6,44.5,29.78,NW,316,9.2,9.2,96,0.01,RA,,0.85,WeatherDisplay:10.37,2014-01-11 16:02:00,
2014-01-11 11:07:00,45.6,44.5,29.79,WNW,297,13.8,13.8,96,0.11,RA,,0.96,WeatherDisplay:10.37,2014-01-11 16:07:00,
2014-01-11 11:12:00,45.9,44.8,29.79,NW,326,12.7,12.7,96,0.18,RA,,1.03,WeatherDisplay:10.37,2014-01-11 16:12:00,
2014-01-11 11:17:00,46.3,45.2,29.80,South,171,10.4,10.4,96,0.21,RA,,1.06,WeatherDisplay:10.37,2014-01-11 16:17:00,
2014-01-11 11:22:00,46.7,45.6,29.78,West,262,0.0,0.0,96,0.23,RA,,1.07,WeatherDisplay:10.37,2014-01-11 16:22:00,
2014-01-11 11:27:00,47.0,45.9,29.79,North,10,0.0,0.0,96,0.23,RA,,1.07,WeatherDisplay:10.37,2014-01-11 16:27:00,
2014-01-11 11:32:00,47.3,46.2,29.78,NW,323,0.0,0.0,96,0.25,RA,,1.09,WeatherDisplay:10.37,2014-01-11 16:32:00,
2014-01-11 11:37:00,47.6,46.5,29.80,WSW,256,4.0,4.0,96,0.26,RA,,1.10,WeatherDisplay:10.37,2014-01-11 16:37:00,
2014-01-11 11:42:00,47.8,46.7,29.80,WSW,243,3.5,3.5,96,0.27,RA,,1.11,WeatherDisplay:10.37,2014-01-11 16:42:00,
2014-01-11 11:47:00,47.9,46.8,29.77,WSW,243,0.0,0.0,96,0.29,RA,,1.13,WeatherDisplay:10.37,2014-01-11 16:47:00,
2014-01-11 11:52:00,48.0,46.9,29.76,WSW,243,0.0,0.0,96,0.30,RA,,1.14,WeatherDisplay:10.37,2014-01-11 16:52:00,
2014-01-11 11:57:00,48.2,47.1,29.77,WSW,243,0.0,0.0,96,0.30,RA,,1.14,WeatherDisplay:10.37,2014-01-11 16:57:00,
2014-01-11 12:02:00,48.3,47.2,29.76,WSW,242,0.0,0.0,96,0.29,CLR,,1.15,WeatherDisplay:10.37,2014-01-11 17:02:00,
2014-01-11 12:07:00,48.3,47.2,29.75,WSW,243,0.0,0.0,96,0.20,RA,,1.15,WeatherDisplay:10.37,2014-01-11 17:07:00,
2014-01-11 12:12:00,48.3,47.2,29.75,WSW,242,0.0,0.0,96,0.14,RA,,1.16,WeatherDisplay:10.37,2014-01-11 17:12:00,
2014-01-11 12:17:00,48.4,47.3,29.76,WSW,243,0.0,0.0,96,0.12,RA,,1.17,WeatherDisplay:10.37,2014-01-11 17:17:00,
2014-01-11 12:22:00,48.4,47.3,29.75,WSW,243,0.0,0.0,96,0.11,RA,,1.18,WeatherDisplay:10.37,2014-01-11 17:22:00,
2014-01-11 12:27:00,48.4,47.3,29.75,WSW,243,0.0,0.0,96,0.12,RA,,1.19,WeatherDisplay:10.37,2014-01-11 17:27:00,
2014-01-11 12:32:00,48.4,47.3,29.75,WSW,243,0.0,0.0,96,0.12,RA,,1.21,WeatherDisplay:10.37,2014-01-11 17:32:00,
2014-01-11 12:37:00,48.4,47.3,29.76,WSW,241,0.0,0.0,96,0.13,RA,,1.23,WeatherDisplay:10.37,2014-01-11 17:37:00,
2014-01-11 12:42:00,48.5,47.4,29.77,SW,223,3.5,3.5,96,0.14,RA,,1.26,WeatherDisplay:10.37,2014-01-11 17:42:00,
2014-01-11 12:47:00,48.7,47.6,29.77,SW,229,3.5,3.5,96,0.15,RA,,1.28,WeatherDisplay:10.37,2014-01-11 17:47:00,
2014-01-11 12:52:00,48.8,47.7,29.76,SW,225,2.3,0.0,96,0.15,RA,,1.30,WeatherDisplay:10.37,2014-01-11 17:52:00,
2014-01-11 12:57:00,49.0,47.9,29.75,SW,221,5.8,5.8,96,0.17,RA,,1.31,WeatherDisplay:10.37,2014-01-11 17:57:00,
2014-01-11 13:02:00,49.2,48.1,29.76,WSW,241,4.6,4.6,96,0.18,RA,,1.32,WeatherDisplay:10.37,2014-01-11 18:02:00,
2014-01-11 13:07:00,49.6,48.5,29.75,SW,233,10.0,10.0,96,0.19,RA,,1.34,WeatherDisplay:10.37,2014-01-11 18:07:00,
2014-01-11 13:12:00,50.0,48.9,29.73,WSW,238,5.8,5.8,96,0.19,RA,,1.35,WeatherDisplay:10.37,2014-01-11 18:12:00,
2014-01-11 13:17:00,50.3,49.2,29.74,WSW,249,10.4,10.4,96,0.20,RA,,1.37,WeatherDisplay:10.37,2014-01-11 18:17:00,
2014-01-11 13:22:00,50.5,49.4,29.73,SW,215,6.0,6.0,96,0.20,RA,,1.39,WeatherDisplay:10.37,2014-01-11 18:22:00,
2014-01-11 13:27:00,50.6,49.5,29.73,WSW,242,11.5,11.5,96,0.21,RA,,1.40,WeatherDisplay:10.37,2014-01-11 18:27:00,
2014-01-11 13:32:00,50.8,49.7,29.72,WSW,240,4.0,4.0,96,0.21,RA,,1.42,WeatherDisplay:10.37,2014-01-11 18:32:00,
2014-01-11 13:37:00,50.9,49.8,29.72,WSW,245,11.5,11.5,96,0.20,RA,,1.44,WeatherDisplay:10.37,2014-01-11 18:37:00,
2014-01-11 13:42:00,51.1,50.0,29.73,SW,214,10.4,10.4,96,0.20,RA,,1.45,WeatherDisplay:10.37,2014-01-11 18:42:00,
2014-01-11 13:47:00,51.2,50.1,29.73,South,172,6.9,6.9,96,0.19,RA,,1.47,WeatherDisplay:10.37,2014-01-11 18:47:00,
2014-01-11 13:52:00,51.2,50.1,29.72,South,171,2.3,2.3,96,0.20,RA,,1.49,WeatherDisplay:10.37,2014-01-11 18:52:00,
2014-01-11 13:57:00,51.2,50.1,29.71,SW,223,5.0,5.0,96,0.18,RA,,1.49,WeatherDisplay:10.37,2014-01-11 18:57:00,
2014-01-11 14:02:00,51.3,50.2,29.71,SSW,204,10.4,10.4,96,0.18,RA,,1.50,WeatherDisplay:10.37,2014-01-11 19:02:00,
2014-01-11 14:07:00,51.5,50.4,29.71,SSW,211,3.5,3.5,96,0.17,RA,,1.51,WeatherDisplay:10.37,2014-01-11 19:07:00,
2014-01-11 14:12:00,51.6,50.5,29.71,SW,223,3.5,3.5,96,0.17,RA,,1.52,WeatherDisplay:10.37,2014-01-11 19:12:00,
2014-01-11 14:17:00,51.8,50.7,29.72,South,184,3.5,3.5,96,0.16,RA,,1.53,WeatherDisplay:10.37,2014-01-11 19:17:00,
2014-01-11 14:22:00,52.0,50.9,29.71,South,174,2.3,2.3,96,0.16,RA,,1.55,WeatherDisplay:10.37,2014-01-11 19:22:00,
2014-01-11 14:27:00,52.1,51.0,29.70,SSE,164,3.0,3.0,96,0.15,RA,,1.55,WeatherDisplay:10.37,2014-01-11 19:27:00,
2014-01-11 14:32:00,52.3,51.2,29.68,SSE,155,10.4,10.4,96,0.14,RA,,1.56,WeatherDisplay:10.37,2014-01-11 19:32:00,
2014-01-11 14:37:00,52.4,51.6,29.67,South,173,3.5,3.5,97,0.14,RA,,1.57,WeatherDisplay:10.37,2014-01-11 19:37:00,
2014-01-11 14:42:00,52.4,51.6,29.68,SSW,205,3.5,3.5,97,0.12,RA,,1.57,WeatherDisplay:10.37,2014-01-11 19:42:00,
2014-01-11 14:47:00,52.6,51.8,29.67,SE,126,8.1,8.1,97,0.10,,,1.57,WeatherDisplay:10.37,2014-01-11 19:47:00,
2014-01-11 14:52:00,52.6,51.8,29.65,ENE,59,2.3,2.3,97,0.08,CLR,,1.57,WeatherDisplay:10.37,2014-01-11 19:52:00,
2014-01-11 14:57:00,52.7,51.6,29.66,South,173,5.0,5.0,96,0.08,CLR,,1.57,WeatherDisplay:10.37,2014-01-11 19:57:00,
2014-01-11 15:02:00,52.8,51.7,29.64,SE,134,3.5,3.5,96,0.07,CLR,,1.57,WeatherDisplay:10.37,2014-01-11 20:02:00,
2014-01-11 15:07:00,52.8,51.7,29.66,South,188,3.5,3.5,96,0.06,CLR,,1.57,WeatherDisplay:10.37,2014-01-11 20:07:00,
2014-01-11 15:08:00,52.8,51.7,29.66,South,188,3.5,3.5,96,0.06,CLR,,1.57,WeatherDisplay:10.37,2014-01-11 20:08:00,
2014-01-11 15:13:00,52.9,51.8,29.66,SSW,206,2.3,2.3,96,0.05,CLR,,1.57,WeatherDisplay:10.37,2014-01-11 20:13:00,
2014-01-11 15:18:00,52.9,51.8,29.64,SE,128,5.0,5.0,96,0.03,CLR,,1.57,WeatherDisplay:10.37,2014-01-11 20:18:00,
2014-01-11 15:23:00,52.9,51.8,29.66,SSW,212,0.0,0.0,96,0.02,CLR,,1.57,WeatherDisplay:10.37,2014-01-11 20:23:00,
2014-01-11 15:28:00,52.9,51.8,29.65,SW,236,8.1,8.1,96,0.02,CLR,,1.57,WeatherDisplay:10.37,2014-01-11 20:28:00,
2014-01-11 15:33:00,53.0,51.9,29.64,SW,234,4.6,4.6,96,0.01,CLR,,1.57,WeatherDisplay:10.37,2014-01-11 20:33:00,
2014-01-11 15:38:00,53.1,52.3,29.64,WSW,244,3.5,3.5,97,0.00,CLR,,1.57,WeatherDisplay:10.37,2014-01-11 20:38:00,
2014-01-11 15:43:00,53.1,52.3,29.64,SW,235,5.0,5.0,97,0.00,CLR,,1.57,WeatherDisplay:10.37,2014-01-11 20:43:00,
2014-01-11 15:48:00,53.2,52.4,29.64,SW,217,11.5,11.5,97,0.00,CLR,,1.57,WeatherDisplay:10.37,2014-01-11 20:48:00,
2014-01-11 15:53:00,53.2,52.4,29.64,WSW,240,5.8,5.8,97,0.00,CLR,,1.57,WeatherDisplay:10.37,2014-01-11 20:53:00,
2014-01-11 15:58:00,53.4,52.3,29.64,West,260,7.0,7.0,96,0.00,CLR,,1.57,WeatherDisplay:10.37,2014-01-11 20:58:00,
2014-01-11 16:03:00,53.6,52.5,29.64,West,259,9.2,9.2,96,0.00,CLR,,1.57,WeatherDisplay:10.37,2014-01-11 21:03:00,
2014-01-11 16:08:00,53.7,52.9,29.64,WSW,237,11.5,11.5,97,0.00,CLR,,1.57,WeatherDisplay:10.37,2014-01-11 21:08:00,
2014-01-11 16:13:00,53.9,53.1,29.64,SW,227,9.2,9.2,97,0.00,CLR,,1.57,WeatherDisplay:10.37,2014-01-11 21:13:00,
2014-01-11 16:18:00,54.0,53.2,29.64,SW,217,10.4,10.4,97,0.00,CLR,,1.57,WeatherDisplay:10.37,2014-01-11 21:18:00,
2014-01-11 16:23:00,54.1,53.0,29.63,SW,226,14.0,14.0,96,0.00,CLR,,1.57,WeatherDisplay:10.37,2014-01-11 21:23:00,
2014-01-11 16:28:00,54.2,53.1,29.63,WSW,242,13.8,13.8,96,0.00,CLR,,1.57,WeatherDisplay:10.37,2014-01-11 21:28:00,
2014-01-11 16:33:00,54.3,53.2,29.64,SW,234,10.4,10.4,96,0.00,CLR,,1.57,WeatherDisplay:10.37,2014-01-11 21:33:00,
2014-01-11 16:34:00,54.3,53.2,29.63,West,275,4.0,4.0,96,0.00,CLR,,1.57,WeatherDisplay:10.37,2014-01-11 21:34:00,
2014-01-11 16:39:00,54.4,53.6,29.64,WSW,256,10.4,10.4,97,0.00,CLR,,1.57,WeatherDisplay:10.37,2014-01-11 21:39:00,
2014-01-11 16:44:00,54.4,53.6,29.64,SW,225,8.1,8.1,97,0.00,CLR,,1.57,WeatherDisplay:10.37,2014-01-11 21:44:00,
2014-01-11 16:49:00,54.4,53.6,29.64,SSW,196,11.5,11.5,97,0.00,CLR,,1.57,WeatherDisplay:10.37,2014-01-11 21:49:00,
2014-01-11 16:54:00,54.5,53.7,29.63,SSW,200,10.4,10.4,97,0.00,CLR,,1.57,WeatherDisplay:10.37,2014-01-11 21:54:00,
2014-01-11 16:59:00,54.5,53.7,29.63,WSW,238,11.5,11.5,97,0.00,CLR,,1.57,WeatherDisplay:10.37,2014-01-11 21:59:00,
2014-01-11 17:04:00,54.5,53.4,29.62,South,188,13.8,13.8,96,0.00,CLR,,1.57,WeatherDisplay:10.37,2014-01-11 22:04:00,
2014-01-11 17:09:00,54.5,53.7,29.63,SSW,194,5.8,5.8,97,0.00,CLR,,1.57,WeatherDisplay:10.37,2014-01-11 22:09:00,
2014-01-11 17:14:00,54.5,53.4,29.63,SW,223,11.5,11.5,96,0.00,CLR,,1.57,WeatherDisplay:10.37,2014-01-11 22:14:00,
2014-01-11 17:19:00,54.6,53.5,29.62,SSW,201,9.2,9.2,96,0.00,CLR,,1.57,WeatherDisplay:10.37,2014-01-11 22:19:00,
2014-01-11 17:24:00,54.5,53.4,29.61,WSW,250,13.8,13.8,96,0.00,CLR,,1.57,WeatherDisplay:10.37,2014-01-11 22:24:00,
2014-01-11 17:29:00,54.6,53.5,29.62,SW,222,5.8,5.8,96,0.00,CLR,,1.57,WeatherDisplay:10.37,2014-01-11 22:29:00,
2014-01-11 17:34:00,54.6,53.5,29.62,SSW,198,4.6,4.6,96,0.00,CLR,,1.57,WeatherDisplay:10.37,2014-01-11 22:34:00,
2014-01-11 17:39:00,54.5,53.4,29.62,SSW,202,3.5,3.5,96,0.00,CLR,,1.57,WeatherDisplay:10.37,2014-01-11 22:39:00,
2014-01-11 17:44:00,54.4,53.6,29.62,SSW,205,9.2,9.2,97,0.00,CLR,,1.57,WeatherDisplay:10.37,2014-01-11 22:44:00,
2014-01-11 17:49:00,54.2,53.1,29.62,SW,217,3.5,3.5,96,0.00,CLR,,1.57,WeatherDisplay:10.37,2014-01-11 22:49:00,
2014-01-11 17:54:00,54.0,52.9,29.62,SW,232,3.5,3.5,96,0.00,CLR,,1.57,WeatherDisplay:10.37,2014-01-11 22:54:00,
2014-01-11 17:59:00,53.9,52.8,29.62,WSW,238,4.0,4.0,96,0.00,CLR,,1.57,WeatherDisplay:10.37,2014-01-11 22:59:00,
2014-01-11 18:04:00,53.7,52.6,29.62,SSW,198,5.8,5.8,96,0.00,CLR,,1.57,WeatherDisplay:10.37,2014-01-11 23:04:00,
2014-01-11 18:09:00,53.6,52.5,29.62,SW,219,8.1,8.1,96,0.00,CLR,,1.57,WeatherDisplay:10.37,2014-01-11 23:09:00,
2014-01-11 18:14:00,53.6,52.5,29.62,SW,219,6.9,6.9,96,0.00,CLR,,1.57,WeatherDisplay:10.37,2014-01-11 23:14:00,
2014-01-11 18:19:00,53.7,52.6,29.62,SW,217,10.4,10.4,96,0.00,CLR,,1.57,WeatherDisplay:10.37,2014-01-11 23:19:00,
2014-01-11 18:24:00,53.8,52.7,29.62,WSW,254,10.4,10.4,96,0.00,CLR,,1.57,WeatherDisplay:10.37,2014-01-11 23:24:00,
2014-01-11 18:29:00,53.9,52.8,29.63,SW,226,7.0,7.0,96,0.00,CLR,,1.57,WeatherDisplay:10.37,2014-01-11 23:29:00,
2014-01-11 18:34:00,54.0,52.9,29.63,SW,224,12.7,12.7,96,0.00,CLR,,1.57,WeatherDisplay:10.37,2014-01-11 23:34:00,
2014-01-11 18:39:00,54.1,53.0,29.63,SW,217,12.0,12.0,96,0.00,CLR,,1.57,WeatherDisplay:10.37,2014-01-11 23:39:00,
2014-01-11 18:44:00,54.2,53.1,29.63,SE,131,7.0,7.0,96,0.00,CLR,,1.57,WeatherDisplay:10.37,2014-01-11 23:44:00,
2014-01-11 18:49:00,54.3,53.2,29.63,SSW,213,12.7,12.7,96,0.00,CLR,,1.57,WeatherDisplay:10.37,2014-01-11 23:49:00,
2014-01-11 18:54:00,54.4,53.3,29.64,WSW,246,13.8,13.8,96,0.00,CLR,,1.57,WeatherDisplay:10.37,2014-01-11 23:54:00,
2014-01-11 18:59:00,54.4,53.3,29.64,SW,224,12.7,12.7,96,0.00,CLR,,1.57,WeatherDisplay:10.37,2014-01-11 23:59:00,
2014-01-11 19:04:00,54.5,53.4,29.64,WSW,246,13.8,13.8,96,0.00,CLR,,1.57,WeatherDisplay:10.37,2014-01-12 00:04:00,
2014-01-11 19:09:00,54.6,53.5,29.64,WSW,248,15.0,15.0,96,0.00,CLR,,1.57,WeatherDisplay:10.37,2014-01-12 00:09:00,
2014-01-11 19:14:00,54.6,53.5,29.65,WSW,250,18.4,18.4,96,0.00,CLR,,1.57,WeatherDisplay:10.37,2014-01-12 00:14:00,
2014-01-11 19:19:00,54.8,53.7,29.65,SW,226,13.8,13.8,96,0.00,CLR,,1.57,WeatherDisplay:10.37,2014-01-12 00:19:00,
2014-01-11 19:24:00,54.8,53.4,29.65,WSW,240,12.7,12.7,95,0.00,CLR,,1.57,WeatherDisplay:10.37,2014-01-12 00:24:00,
2014-01-11 19:29:00,54.9,53.5,29.65,WSW,249,11.0,11.0,95,0.00,CLR,,1.57,WeatherDisplay:10.37,2014-01-12 00:29:00,
2014-01-11 19:34:00,54.9,53.5,29.65,WSW,242,11.5,11.5,95,0.00,CLR,,1.57,WeatherDisplay:10.37,2014-01-12 00:34:00,
2014-01-11 19:39:00,54.9,53.2,29.65,WSW,254,17.3,17.3,94,0.00,CLR,,1.57,WeatherDisplay:10.37,2014-01-12 00:39:00,
2014-01-11 19:44:00,55.0,53.3,29.66,SSW,213,12.7,12.7,94,0.00,CLR,,1.57,WeatherDisplay:10.37,2014-01-12 00:44:00,
2014-01-11 19:49:00,55.1,53.4,29.66,WSW,248,11.5,11.5,94,0.00,CLR,,1.57,WeatherDisplay:10.37,2014-01-12 00:49:00,
2014-01-11 19:54:00,55.0,53.3,29.66,WSW,243,11.5,11.5,94,0.00,CLR,,1.57,WeatherDisplay:10.37,2014-01-12 00:54:00,
2014-01-11 19:59:00,55.0,53.3,29.67,WSW,258,11.5,11.5,94,0.00,CLR,,1.57,WeatherDisplay:10.37,2014-01-12 00:59:00,
2014-01-11 20:04:00,55.0,53.3,29.67,West,261,9.2,9.2,94,0.00,CLR,,1.57,WeatherDisplay:10.37,2014-01-12 01:04:00,
2014-01-11 20:09:00,54.9,53.2,29.67,West,260,11.5,11.5,94,0.00,CLR,,1.57,WeatherDisplay:10.37,2014-01-12 01:09:00,
2014-01-11 20:14:00,54.8,53.1,29.68,West,275,6.0,6.0,94,0.00,CLR,,1.57,WeatherDisplay:10.37,2014-01-12 01:14:00,
2014-01-11 20:19:00,54.8,53.1,29.68,West,268,4.6,4.6,94,0.00,CLR,,1.57,WeatherDisplay:10.37,2014-01-12 01:19:00,
2014-01-11 20:24:00,54.8,53.1,29.68,West,280,5.0,5.0,94,0.00,CLR,,1.57,WeatherDisplay:10.37,2014-01-12 01:24:00,
2014-01-11 20:29:00,54.8,53.1,29.69,West,268,10.0,10.0,94,0.00,CLR,,1.57,WeatherDisplay:10.37,2014-01-12 01:29:00,
2014-01-11 20:34:00,54.8,53.1,29.69,West,267,4.6,4.6,94,0.00,CLR,,1.57,WeatherDisplay:10.37,2014-01-12 01:34:00,
2014-01-11 20:39:00,54.7,53.0,29.69,West,263,8.1,8.1,94,0.00,CLR,,1.57,WeatherDisplay:10.37,2014-01-12 01:39:00,
2014-01-11 20:44:00,54.6,52.9,29.69,WNW,290,10.4,10.4,94,0.00,CLR,,1.57,WeatherDisplay:10.37,2014-01-12 01:44:00,
2014-01-11 20:49:00,54.6,52.6,29.69,WSW,255,10.4,10.4,93,0.00,CLR,,1.57,WeatherDisplay:10.37,2014-01-12 01:49:00,
2014-01-11 20:54:00,54.4,52.4,29.69,WSW,251,5.8,5.8,93,0.00,CLR,,1.57,WeatherDisplay:10.37,2014-01-12 01:54:00,
2014-01-11 20:59:00,54.4,52.4,29.69,WSW,248,6.9,6.9,93,0.00,CLR,,1.57,WeatherDisplay:10.37,2014-01-12 01:59:00,
2014-01-11 21:04:00,54.3,52.3,29.69,WSW,240,6.9,6.9,93,0.00,CLR,,1.57,WeatherDisplay:10.37,2014-01-12 02:04:00,
2014-01-11 21:09:00,54.2,52.2,29.69,WSW,246,4.6,4.6,93,0.00,CLR,,1.57,WeatherDisplay:10.37,2014-01-12 02:09:00,
2014-01-11 21:14:00,54.2,52.2,29.69,WSW,246,4.0,4.0,93,0.00,CLR,,1.57,WeatherDisplay:10.37,2014-01-12 02:14:00,
2014-01-11 21:19:00,54.0,52.0,29.69,WNW,284,5.0,5.0,93,0.00,CLR,,1.57,WeatherDisplay:10.37,2014-01-12 02:19:00,
2014-01-11 21:24:00,53.9,51.9,29.70,WNW,282,4.6,4.6,93,0.00,CLR,,1.57,WeatherDisplay:10.37,2014-01-12 02:24:00,
2014-01-11 21:29:00,53.7,51.4,29.70,West,281,2.3,2.3,92,0.00,CLR,,1.57,WeatherDisplay:10.37,2014-01-12 02:29:00,
2014-01-11 21:34:00,53.5,51.2,29.70,West,281,0.0,0.0,92,0.00,CLR,,1.57,WeatherDisplay:10.37,2014-01-12 02:34:00,
2014-01-11 21:39:00,53.3,51.0,29.70,West,280,3.5,3.5,92,0.00,CLR,,1.57,WeatherDisplay:10.37,2014-01-12 02:39:00,
2014-01-11 21:44:00,53.0,50.7,29.70,West,273,3.5,3.5,92,0.00,CLR,,1.57,WeatherDisplay:10.37,2014-01-12 02:44:00,
2014-01-11 21:49:00,52.7,50.1,29.71,West,276,5.8,5.8,91,0.00,CLR,,1.57,WeatherDisplay:10.37,2014-01-12 02:49:00,
2014-01-11 21:54:00,52.6,48.8,29.71,West,276,11.5,11.5,87,0.00,CLR,,1.57,WeatherDisplay:10.37,2014-01-12 02:54:00,
2014-01-11 21:59:00,52.5,48.1,29.71,WNW,300,4.6,4.6,85,0.00,CLR,,1.57,WeatherDisplay:10.37,2014-01-12 02:59:00,
2014-01-11 22:04:00,52.4,47.4,29.71,WNW,287,11.5,11.5,83,0.00,CLR,,1.57,WeatherDisplay:10.37,2014-01-12 03:04:00,
2014-01-11 22:09:00,52.3,47.0,29.71,WNW,290,5.8,5.8,82,0.00,CLR,,1.57,WeatherDisplay:10.37,2014-01-12 03:09:00,
2014-01-11 22:14:00,52.1,46.8,29.71,WNW,294,9.2,9.2,82,0.00,CLR,,1.57,WeatherDisplay:10.37,2014-01-12 03:14:00,
2014-01-11 22:19:00,51.9,46.6,29.72,WNW,296,8.1,8.1,82,0.00,CLR,,1.57,WeatherDisplay:10.37,2014-01-12 03:19:00,
2014-01-11 22:24:00,51.7,45.7,29.72,WNW,292,11.5,11.5,80,0.00,CLR,,1.57,WeatherDisplay:10.37,2014-01-12 03:24:00,
2014-01-11 22:29:00,51.5,44.9,29.72,WNW,300,6.9,6.9,78,0.00,CLR,,1.57,WeatherDisplay:10.37,2014-01-12 03:29:00,
2014-01-11 22:34:00,51.4,44.8,29.73,West,277,11.5,11.5,78,0.00,CLR,,1.57,WeatherDisplay:10.37,2014-01-12 03:34:00,
2014-01-11 22:39:00,51.4,43.7,29.73,West,277,13.8,13.8,75,0.00,CLR,,1.57,WeatherDisplay:10.37,2014-01-12 03:39:00,
2014-01-11 22:44:00,51.3,43.6,29.74,WNW,293,8.1,8.1,75,0.00,CLR,,1.57,WeatherDisplay:10.37,2014-01-12 03:44:00,
2014-01-11 22:49:00,51.2,43.5,29.74,WNW,288,9.2,9.2,75,0.00,CLR,,1.57,WeatherDisplay:10.37,2014-01-12 03:49:00,
2014-01-11 22:54:00,50.9,43.3,29.75,WNW,286,6.9,6.9,75,0.00,CLR,,1.57,WeatherDisplay:10.37,2014-01-12 03:54:00,
2014-01-11 22:59:00,50.6,43.0,29.74,WNW,284,5.0,5.0,75,0.00,CLR,,1.57,WeatherDisplay:10.37,2014-01-12 03:59:00,
2014-01-11 23:04:00,50.3,42.7,29.74,WNW,284,6.9,6.9,75,0.00,CLR,,1.57,WeatherDisplay:10.37,2014-01-12 04:04:00,
2014-01-11 23:09:00,50.0,42.4,29.75,West,276,5.8,5.8,75,0.00,CLR,,1.57,WeatherDisplay:10.37,2014-01-12 04:09:00,
2014-01-11 23:14:00,49.7,42.1,29.75,WNW,284,5.8,5.8,75,0.00,CLR,,1.57,WeatherDisplay:10.37,2014-01-12 04:14:00,
2014-01-11 23:19:00,49.4,42.1,29.75,West,273,4.6,4.6,76,0.00,CLR,,1.57,WeatherDisplay:10.37,2014-01-12 04:19:00,
2014-01-11 23:24:00,49.0,41.4,29.76,West,281,10.4,10.4,75,0.00,CLR,,1.57,WeatherDisplay:10.37,2014-01-12 04:24:00,
2014-01-11 23:29:00,48.8,40.9,29.76,WNW,283,11.5,11.5,74,0.00,CLR,,1.57,WeatherDisplay:10.37,2014-01-12 04:29:00,
2014-01-11 23:34:00,48.7,40.4,29.76,WNW,283,13.8,13.8,73,0.00,CLR,,1.57,WeatherDisplay:10.37,2014-01-12 04:34:00,
2014-01-11 23:39:00,48.7,40.1,29.76,WNW,284,10.4,10.4,72,0.00,CLR,,1.57,WeatherDisplay:10.37,2014-01-12 04:39:00,
2014-01-11 23:44:00,48.5,39.9,29.76,West,264,12.0,12.0,72,0.00,CLR,,1.57,WeatherDisplay:10.37,2014-01-12 04:44:00,
2014-01-11 23:49:00,48.5,39.5,29.76,WNW,286,11.5,11.5,71,0.00,CLR,,1.57,WeatherDisplay:10.37,2014-01-12 04:49:00,
2014-01-11 23:54:00,48.5,39.9,29.77,West,281,7.0,7.0,72,0.00,CLR,,1.57,WeatherDisplay:10.37,2014-01-12 04:54:00,
2014-01-11 23:59:00,48.4,39.1,29.77,WNW,286,15.0,15.0,70,0.00,CLR,,1.57,WeatherDisplay:10.37,2014-01-12 04:59:00,